sensor_id;sensor_type;location;lat;lon;timestamp;P1;durP1;ratioP1;P2;durP2;ratioP2
37905;SDS011;23739;51.448;6.674;2024-02-21T00:00:52;24.45;;;12.45;;
37905;SDS011;23739;51.448;6.674;2024-02-21T00:03:18;24.45;;;12.90;;
37905;SDS011;23739;51.448;6.674;2024-02-21T00:05:44;29.88;;;13.35;;
37905;SDS011;23739;51.448;6.674;2024-02-21T00:08:10;27.80;;;13.13;;
37905;SDS011;23739;51.448;6.674;2024-02-21T00:10:36;31.75;;;13.50;;
37905;SDS011;23739;51.448;6.674;2024-02-21T00:13:01;30.15;;;13.23;;
37905;SDS011;23739;51.448;6.674;2024-02-21T00:15:27;26.83;;;14.15;;
37905;SDS011;23739;51.448;6.674;2024-02-21T00:17:53;32.80;;;12.93;;
37905;SDS011;23739;51.448;6.674;2024-02-21T00:20:19;28.42;;;15.15;;
37905;SDS011;23739;51.448;6.674;2024-02-21T00:22:45;34.15;;;14.25;;
37905;SDS011;23739;51.448;6.674;2024-02-21T00:25:11;31.02;;;13.68;;
37905;SDS011;23739;51.448;6.674;2024-02-21T00:27:37;30.08;;;13.85;;
37905;SDS011;23739;51.448;6.674;2024-02-21T00:30:04;30.88;;;13.45;;
37905;SDS011;23739;51.448;6.674;2024-02-21T00:32:30;34.10;;;13.52;;
37905;SDS011;23739;51.448;6.674;2024-02-21T00:34:57;27.63;;;15.13;;
37905;SDS011;23739;51.448;6.674;2024-02-21T00:37:23;27.58;;;14.65;;
37905;SDS011;23739;51.448;6.674;2024-02-21T00:39:48;24.75;;;12.60;;
37905;SDS011;23739;51.448;6.674;2024-02-21T00:42:14;25.52;;;12.65;;
37905;SDS011;23739;51.448;6.674;2024-02-21T00:44:40;34.78;;;13.93;;
37905;SDS011;23739;51.448;6.674;2024-02-21T00:47:05;28.67;;;13.95;;
37905;SDS011;23739;51.448;6.674;2024-02-21T00:49:31;28.75;;;14.23;;
37905;SDS011;23739;51.448;6.674;2024-02-21T00:51:56;23.35;;;14.35;;
37905;SDS011;23739;51.448;6.674;2024-02-21T00:54:22;37.53;;;14.27;;
37905;SDS011;23739;51.448;6.674;2024-02-21T00:56:48;29.80;;;13.30;;
37905;SDS011;23739;51.448;6.674;2024-02-21T00:59:13;27.75;;;14.23;;
37905;SDS011;23739;51.448;6.674;2024-02-21T01:01:39;26.05;;;12.80;;
37905;SDS011;23739;51.448;6.674;2024-02-21T01:04:08;32.33;;;13.35;;
37905;SDS011;23739;51.448;6.674;2024-02-21T01:06:34;29.83;;;12.57;;
37905;SDS011;23739;51.448;6.674;2024-02-21T01:09:00;26.33;;;13.95;;
37905;SDS011;23739;51.448;6.674;2024-02-21T01:11:25;28.38;;;12.98;;
37905;SDS011;23739;51.448;6.674;2024-02-21T01:13:51;28.27;;;13.80;;
37905;SDS011;23739;51.448;6.674;2024-02-21T01:16:17;28.98;;;13.05;;
37905;SDS011;23739;51.448;6.674;2024-02-21T01:18:42;27.35;;;13.02;;
37905;SDS011;23739;51.448;6.674;2024-02-21T01:21:08;25.30;;;12.75;;
37905;SDS011;23739;51.448;6.674;2024-02-21T01:23:35;30.70;;;13.48;;
37905;SDS011;23739;51.448;6.674;2024-02-21T01:26:02;29.92;;;13.02;;
37905;SDS011;23739;51.448;6.674;2024-02-21T01:28:28;25.05;;;13.88;;
37905;SDS011;23739;51.448;6.674;2024-02-21T01:30:54;19.95;;;12.13;;
37905;SDS011;23739;51.448;6.674;2024-02-21T01:33:20;25.98;;;13.35;;
37905;SDS011;23739;51.448;6.674;2024-02-21T01:35:46;27.35;;;12.32;;
37905;SDS011;23739;51.448;6.674;2024-02-21T01:38:12;23.23;;;11.52;;
37905;SDS011;23739;51.448;6.674;2024-02-21T01:40:38;24.40;;;11.75;;
37905;SDS011;23739;51.448;6.674;2024-02-21T01:43:14;26.48;;;11.95;;
37905;SDS011;23739;51.448;6.674;2024-02-21T01:45:41;33.63;;;11.23;;
37905;SDS011;23739;51.448;6.674;2024-02-21T01:48:07;25.33;;;11.68;;
37905;SDS011;23739;51.448;6.674;2024-02-21T01:50:33;25.60;;;10.93;;
37905;SDS011;23739;51.448;6.674;2024-02-21T01:52:58;18.90;;;11.35;;
37905;SDS011;23739;51.448;6.674;2024-02-21T01:55:25;26.17;;;11.48;;
37905;SDS011;23739;51.448;6.674;2024-02-21T01:57:51;25.67;;;12.13;;
37905;SDS011;23739;51.448;6.674;2024-02-21T02:00:17;28.45;;;11.75;;
37905;SDS011;23739;51.448;6.674;2024-02-21T02:02:42;24.05;;;11.20;;
37905;SDS011;23739;51.448;6.674;2024-02-21T02:05:09;22.20;;;11.75;;
37905;SDS011;23739;51.448;6.674;2024-02-21T02:07:36;18.38;;;11.25;;
37905;SDS011;23739;51.448;6.674;2024-02-21T02:10:02;22.10;;;10.77;;
37905;SDS011;23739;51.448;6.674;2024-02-21T02:12:28;23.15;;;11.95;;
37905;SDS011;23739;51.448;6.674;2024-02-21T02:15:00;27.33;;;10.90;;
37905;SDS011;23739;51.448;6.674;2024-02-21T02:17:30;20.10;;;10.88;;
37905;SDS011;23739;51.448;6.674;2024-02-21T02:19:56;21.83;;;9.93;;
37905;SDS011;23739;51.448;6.674;2024-02-21T02:22:22;21.45;;;11.32;;
37905;SDS011;23739;51.448;6.674;2024-02-21T02:24:53;24.38;;;10.13;;
37905;SDS011;23739;51.448;6.674;2024-02-21T02:27:18;23.58;;;10.27;;
37905;SDS011;23739;51.448;6.674;2024-02-21T02:29:44;21.00;;;11.10;;
37905;SDS011;23739;51.448;6.674;2024-02-21T02:32:11;20.77;;;10.57;;
37905;SDS011;23739;51.448;6.674;2024-02-21T02:34:36;19.15;;;10.05;;
37905;SDS011;23739;51.448;6.674;2024-02-21T02:37:02;23.27;;;10.73;;
37905;SDS011;23739;51.448;6.674;2024-02-21T02:39:28;19.25;;;10.50;;
37905;SDS011;23739;51.448;6.674;2024-02-21T02:41:54;22.10;;;11.23;;
37905;SDS011;23739;51.448;6.674;2024-02-21T02:44:19;21.60;;;10.82;;
37905;SDS011;23739;51.448;6.674;2024-02-21T02:46:45;24.02;;;10.80;;
37905;SDS011;23739;51.448;6.674;2024-02-21T02:49:11;23.77;;;11.20;;
37905;SDS011;23739;51.448;6.674;2024-02-21T02:51:36;17.42;;;10.18;;
37905;SDS011;23739;51.448;6.674;2024-02-21T02:54:05;29.10;;;11.13;;
37905;SDS011;23739;51.448;6.674;2024-02-21T02:56:31;21.63;;;11.43;;
37905;SDS011;23739;51.448;6.674;2024-02-21T02:58:57;24.58;;;10.80;;
37905;SDS011;23739;51.448;6.674;2024-02-21T03:01:23;27.98;;;10.95;;
37905;SDS011;23739;51.448;6.674;2024-02-21T03:03:49;18.42;;;10.35;;
37905;SDS011;23739;51.448;6.674;2024-02-21T03:06:15;20.13;;;10.77;;
37905;SDS011;23739;51.448;6.674;2024-02-21T03:08:40;23.85;;;11.35;;
37905;SDS011;23739;51.448;6.674;2024-02-21T03:11:07;17.50;;;9.95;;
37905;SDS011;23739;51.448;6.674;2024-02-21T03:13:33;22.95;;;10.20;;
37905;SDS011;23739;51.448;6.674;2024-02-21T03:15:59;22.10;;;10.18;;
37905;SDS011;23739;51.448;6.674;2024-02-21T03:18:24;22.35;;;9.48;;
37905;SDS011;23739;51.448;6.674;2024-02-21T03:20:50;21.52;;;10.38;;
37905;SDS011;23739;51.448;6.674;2024-02-21T03:23:16;15.02;;;9.48;;
37905;SDS011;23739;51.448;6.674;2024-02-21T03:25:41;23.17;;;8.52;;
37905;SDS011;23739;51.448;6.674;2024-02-21T03:28:07;16.35;;;8.52;;
37905;SDS011;23739;51.448;6.674;2024-02-21T03:30:32;19.20;;;10.20;;
37905;SDS011;23739;51.448;6.674;2024-02-21T03:32:59;19.42;;;8.93;;
37905;SDS011;23739;51.448;6.674;2024-02-21T03:35:26;23.80;;;8.75;;
37905;SDS011;23739;51.448;6.674;2024-02-21T03:37:52;17.08;;;8.32;;
37905;SDS011;23739;51.448;6.674;2024-02-21T03:40:18;21.33;;;9.13;;
37905;SDS011;23739;51.448;6.674;2024-02-21T03:42:44;17.98;;;9.68;;
37905;SDS011;23739;51.448;6.674;2024-02-21T03:45:09;23.15;;;9.07;;
37905;SDS011;23739;51.448;6.674;2024-02-21T03:47:35;18.65;;;9.50;;
37905;SDS011;23739;51.448;6.674;2024-02-21T03:50:00;20.83;;;9.88;;
37905;SDS011;23739;51.448;6.674;2024-02-21T03:52:26;19.35;;;9.05;;
37905;SDS011;23739;51.448;6.674;2024-02-21T03:54:53;24.48;;;10.32;;
37905;SDS011;23739;51.448;6.674;2024-02-21T03:57:20;21.08;;;10.07;;
37905;SDS011;23739;51.448;6.674;2024-02-21T03:59:46;19.75;;;9.32;;
37905;SDS011;23739;51.448;6.674;2024-02-21T04:02:12;21.15;;;9.35;;
37905;SDS011;23739;51.448;6.674;2024-02-21T04:04:37;21.33;;;9.73;;
37905;SDS011;23739;51.448;6.674;2024-02-21T04:07:03;23.58;;;10.38;;
37905;SDS011;23739;51.448;6.674;2024-02-21T04:09:32;24.38;;;9.43;;
37905;SDS011;23739;51.448;6.674;2024-02-21T04:11:59;20.50;;;9.68;;
37905;SDS011;23739;51.448;6.674;2024-02-21T04:14:25;26.58;;;10.15;;
37905;SDS011;23739;51.448;6.674;2024-02-21T04:16:51;22.50;;;9.77;;
37905;SDS011;23739;51.448;6.674;2024-02-21T04:19:17;19.60;;;8.73;;
37905;SDS011;23739;51.448;6.674;2024-02-21T04:21:42;13.52;;;8.18;;
37905;SDS011;23739;51.448;6.674;2024-02-21T04:24:08;15.32;;;8.85;;
37905;SDS011;23739;51.448;6.674;2024-02-21T04:26:34;19.70;;;9.60;;
37905;SDS011;23739;51.448;6.674;2024-02-21T04:28:59;22.58;;;9.15;;
37905;SDS011;23739;51.448;6.674;2024-02-21T04:31:25;21.55;;;7.95;;
37905;SDS011;23739;51.448;6.674;2024-02-21T04:33:50;23.42;;;8.57;;
37905;SDS011;23739;51.448;6.674;2024-02-21T04:36:16;17.70;;;8.48;;
37905;SDS011;23739;51.448;6.674;2024-02-21T04:38:42;13.73;;;8.07;;
37905;SDS011;23739;51.448;6.674;2024-02-21T04:41:08;17.55;;;8.38;;
37905;SDS011;23739;51.448;6.674;2024-02-21T04:43:33;17.05;;;7.30;;
37905;SDS011;23739;51.448;6.674;2024-02-21T04:45:59;15.57;;;8.20;;
37905;SDS011;23739;51.448;6.674;2024-02-21T04:48:25;18.38;;;7.25;;
37905;SDS011;23739;51.448;6.674;2024-02-21T04:50:51;11.75;;;6.80;;
37905;SDS011;23739;51.448;6.674;2024-02-21T04:53:16;16.95;;;8.48;;
37905;SDS011;23739;51.448;6.674;2024-02-21T04:55:42;15.98;;;7.72;;
37905;SDS011;23739;51.448;6.674;2024-02-21T04:58:08;18.90;;;7.93;;
37905;SDS011;23739;51.448;6.674;2024-02-21T05:00:34;14.25;;;6.18;;
37905;SDS011;23739;51.448;6.674;2024-02-21T05:02:59;14.13;;;7.07;;
37905;SDS011;23739;51.448;6.674;2024-02-21T05:05:25;14.88;;;7.32;;
37905;SDS011;23739;51.448;6.674;2024-02-21T05:07:51;20.27;;;6.82;;
37905;SDS011;23739;51.448;6.674;2024-02-21T05:10:16;14.18;;;6.88;;
37905;SDS011;23739;51.448;6.674;2024-02-21T05:12:44;19.63;;;9.25;;
37905;SDS011;23739;51.448;6.674;2024-02-21T05:15:10;14.55;;;7.57;;
37905;SDS011;23739;51.448;6.674;2024-02-21T05:17:35;13.02;;;6.72;;
37905;SDS011;23739;51.448;6.674;2024-02-21T05:20:01;15.88;;;7.45;;
37905;SDS011;23739;51.448;6.674;2024-02-21T05:22:27;20.73;;;7.18;;
37905;SDS011;23739;51.448;6.674;2024-02-21T05:24:53;19.52;;;7.55;;
37905;SDS011;23739;51.448;6.674;2024-02-21T05:27:18;15.30;;;8.52;;
37905;SDS011;23739;51.448;6.674;2024-02-21T05:29:44;14.93;;;7.57;;
37905;SDS011;23739;51.448;6.674;2024-02-21T05:32:10;18.60;;;8.45;;
37905;SDS011;23739;51.448;6.674;2024-02-21T05:34:35;25.40;;;7.80;;
37905;SDS011;23739;51.448;6.674;2024-02-21T05:37:01;19.95;;;7.32;;
37905;SDS011;23739;51.448;6.674;2024-02-21T05:39:27;18.20;;;8.48;;
37905;SDS011;23739;51.448;6.674;2024-02-21T05:41:54;14.90;;;7.40;;
37905;SDS011;23739;51.448;6.674;2024-02-21T05:44:20;13.57;;;8.23;;
37905;SDS011;23739;51.448;6.674;2024-02-21T05:46:47;15.15;;;7.63;;
37905;SDS011;23739;51.448;6.674;2024-02-21T05:49:13;16.13;;;7.18;;
37905;SDS011;23739;51.448;6.674;2024-02-21T05:51:39;16.52;;;7.35;;
37905;SDS011;23739;51.448;6.674;2024-02-21T05:54:04;14.98;;;7.95;;
37905;SDS011;23739;51.448;6.674;2024-02-21T05:56:30;19.45;;;8.00;;
37905;SDS011;23739;51.448;6.674;2024-02-21T05:58:56;19.40;;;8.95;;
37905;SDS011;23739;51.448;6.674;2024-02-21T06:01:22;20.60;;;8.05;;
37905;SDS011;23739;51.448;6.674;2024-02-21T06:03:47;13.07;;;6.60;;
37905;SDS011;23739;51.448;6.674;2024-02-21T06:06:13;20.15;;;8.25;;
37905;SDS011;23739;51.448;6.674;2024-02-21T06:08:42;18.25;;;8.27;;
37905;SDS011;23739;51.448;6.674;2024-02-21T06:11:08;17.88;;;7.57;;
37905;SDS011;23739;51.448;6.674;2024-02-21T06:13:33;19.90;;;7.93;;
37905;SDS011;23739;51.448;6.674;2024-02-21T06:16:03;17.77;;;8.32;;
37905;SDS011;23739;51.448;6.674;2024-02-21T06:18:29;15.05;;;7.55;;
37905;SDS011;23739;51.448;6.674;2024-02-21T06:20:55;18.45;;;7.95;;
37905;SDS011;23739;51.448;6.674;2024-02-21T06:23:21;15.35;;;7.43;;
37905;SDS011;23739;51.448;6.674;2024-02-21T06:25:46;17.35;;;6.97;;
37905;SDS011;23739;51.448;6.674;2024-02-21T06:28:12;23.98;;;7.15;;
37905;SDS011;23739;51.448;6.674;2024-02-21T06:30:39;14.60;;;6.65;;
37905;SDS011;23739;51.448;6.674;2024-02-21T06:33:05;17.77;;;7.07;;
37905;SDS011;23739;51.448;6.674;2024-02-21T06:35:32;15.43;;;7.80;;
37905;SDS011;23739;51.448;6.674;2024-02-21T06:37:58;24.08;;;8.05;;
37905;SDS011;23739;51.448;6.674;2024-02-21T06:40:24;14.52;;;6.90;;
37905;SDS011;23739;51.448;6.674;2024-02-21T06:42:50;15.55;;;8.00;;
37905;SDS011;23739;51.448;6.674;2024-02-21T06:45:16;14.90;;;6.32;;
37905;SDS011;23739;51.448;6.674;2024-02-21T06:47:42;18.58;;;8.60;;
37905;SDS011;23739;51.448;6.674;2024-02-21T06:50:08;17.58;;;7.35;;
37905;SDS011;23739;51.448;6.674;2024-02-21T06:52:34;19.00;;;8.43;;
37905;SDS011;23739;51.448;6.674;2024-02-21T06:55:00;19.05;;;6.93;;
37905;SDS011;23739;51.448;6.674;2024-02-21T06:57:26;18.50;;;7.13;;
37905;SDS011;23739;51.448;6.674;2024-02-21T06:59:53;18.15;;;6.95;;
37905;SDS011;23739;51.448;6.674;2024-02-21T07:02:19;13.48;;;7.03;;
37905;SDS011;23739;51.448;6.674;2024-02-21T07:04:44;16.23;;;7.43;;
37905;SDS011;23739;51.448;6.674;2024-02-21T07:07:10;14.20;;;7.00;;
37905;SDS011;23739;51.448;6.674;2024-02-21T07:09:36;22.05;;;6.80;;
37905;SDS011;23739;51.448;6.674;2024-02-21T07:12:01;14.15;;;7.07;;
37905;SDS011;23739;51.448;6.674;2024-02-21T07:14:29;21.25;;;7.22;;
37905;SDS011;23739;51.448;6.674;2024-02-21T07:16:54;15.05;;;6.55;;
37905;SDS011;23739;51.448;6.674;2024-02-21T07:19:22;14.88;;;6.55;;
37905;SDS011;23739;51.448;6.674;2024-02-21T07:21:47;21.13;;;7.32;;
37905;SDS011;23739;51.448;6.674;2024-02-21T07:24:13;19.40;;;6.95;;
37905;SDS011;23739;51.448;6.674;2024-02-21T07:26:42;14.80;;;7.10;;
37905;SDS011;23739;51.448;6.674;2024-02-21T07:29:08;20.10;;;7.50;;
37905;SDS011;23739;51.448;6.674;2024-02-21T07:31:40;17.10;;;7.30;;
37905;SDS011;23739;51.448;6.674;2024-02-21T07:34:06;14.07;;;6.18;;
37905;SDS011;23739;51.448;6.674;2024-02-21T07:36:32;16.58;;;6.85;;
37905;SDS011;23739;51.448;6.674;2024-02-21T07:38:58;13.48;;;5.90;;
37905;SDS011;23739;51.448;6.674;2024-02-21T07:41:26;15.55;;;6.63;;
37905;SDS011;23739;51.448;6.674;2024-02-21T07:43:55;11.27;;;6.50;;
37905;SDS011;23739;51.448;6.674;2024-02-21T07:46:20;16.85;;;6.35;;
37905;SDS011;23739;51.448;6.674;2024-02-21T07:48:46;14.13;;;5.90;;
37905;SDS011;23739;51.448;6.674;2024-02-21T07:51:12;11.15;;;6.28;;
37905;SDS011;23739;51.448;6.674;2024-02-21T07:53:40;13.65;;;6.30;;
37905;SDS011;23739;51.448;6.674;2024-02-21T07:56:10;16.10;;;5.90;;
37905;SDS011;23739;51.448;6.674;2024-02-21T07:58:36;12.82;;;6.05;;
37905;SDS011;23739;51.448;6.674;2024-02-21T08:01:02;11.88;;;6.45;;
37905;SDS011;23739;51.448;6.674;2024-02-21T08:03:28;14.40;;;5.80;;
37905;SDS011;23739;51.448;6.674;2024-02-21T08:05:53;12.32;;;5.28;;
37905;SDS011;23739;51.448;6.674;2024-02-21T08:08:19;12.90;;;5.57;;
37905;SDS011;23739;51.448;6.674;2024-02-21T08:10:47;13.32;;;6.15;;
37905;SDS011;23739;51.448;6.674;2024-02-21T08:13:13;9.80;;;4.85;;
37905;SDS011;23739;51.448;6.674;2024-02-21T08:15:39;18.17;;;5.72;;
37905;SDS011;23739;51.448;6.674;2024-02-21T08:18:06;17.63;;;5.55;;
37905;SDS011;23739;51.448;6.674;2024-02-21T08:20:32;10.60;;;4.45;;
37905;SDS011;23739;51.448;6.674;2024-02-21T08:22:58;9.45;;;5.18;;
37905;SDS011;23739;51.448;6.674;2024-02-21T08:25:24;13.98;;;4.72;;
37905;SDS011;23739;51.448;6.674;2024-02-21T08:27:50;16.50;;;6.40;;
37905;SDS011;23739;51.448;6.674;2024-02-21T08:30:16;12.80;;;5.60;;
37905;SDS011;23739;51.448;6.674;2024-02-21T08:32:42;14.50;;;5.40;;
37905;SDS011;23739;51.448;6.674;2024-02-21T08:35:08;9.70;;;5.13;;
37905;SDS011;23739;51.448;6.674;2024-02-21T08:37:34;12.77;;;6.25;;
37905;SDS011;23739;51.448;6.674;2024-02-21T08:39:59;19.88;;;6.50;;
37905;SDS011;23739;51.448;6.674;2024-02-21T08:42:34;13.20;;;5.88;;
37905;SDS011;23739;51.448;6.674;2024-02-21T08:45:09;15.13;;;6.30;;
37905;SDS011;23739;51.448;6.674;2024-02-21T08:47:35;21.67;;;7.20;;
37905;SDS011;23739;51.448;6.674;2024-02-21T08:50:01;15.63;;;6.22;;
37905;SDS011;23739;51.448;6.674;2024-02-21T08:52:27;19.00;;;6.35;;
37905;SDS011;23739;51.448;6.674;2024-02-21T08:54:53;16.88;;;6.40;;
37905;SDS011;23739;51.448;6.674;2024-02-21T08:57:19;18.38;;;7.18;;
37905;SDS011;23739;51.448;6.674;2024-02-21T08:59:45;18.35;;;5.18;;
37905;SDS011;23739;51.448;6.674;2024-02-21T09:02:12;17.55;;;4.63;;
37905;SDS011;23739;51.448;6.674;2024-02-21T09:04:38;8.48;;;5.47;;
37905;SDS011;23739;51.448;6.674;2024-02-21T09:07:03;13.07;;;4.63;;
37905;SDS011;23739;51.448;6.674;2024-02-21T09:09:29;10.57;;;5.18;;
37905;SDS011;23739;51.448;6.674;2024-02-21T09:11:56;17.25;;;5.00;;
37905;SDS011;23739;51.448;6.674;2024-02-21T09:14:22;14.73;;;4.82;;
37905;SDS011;23739;51.448;6.674;2024-02-21T09:16:48;9.05;;;4.25;;
37905;SDS011;23739;51.448;6.674;2024-02-21T09:19:13;10.10;;;4.32;;
37905;SDS011;23739;51.448;6.674;2024-02-21T09:21:39;10.00;;;4.47;;
37905;SDS011;23739;51.448;6.674;2024-02-21T09:24:05;12.32;;;6.10;;
37905;SDS011;23739;51.448;6.674;2024-02-21T09:26:31;12.82;;;4.18;;
37905;SDS011;23739;51.448;6.674;2024-02-21T09:28:57;11.55;;;4.75;;
37905;SDS011;23739;51.448;6.674;2024-02-21T09:31:23;10.00;;;3.22;;
37905;SDS011;23739;51.448;6.674;2024-02-21T09:33:48;10.20;;;3.80;;
37905;SDS011;23739;51.448;6.674;2024-02-21T09:36:14;12.25;;;3.95;;
37905;SDS011;23739;51.448;6.674;2024-02-21T09:38:40;12.80;;;4.13;;
37905;SDS011;23739;51.448;6.674;2024-02-21T09:43:44;10.80;;;4.97;;
37905;SDS011;23739;51.448;6.674;2024-02-21T09:46:17;9.43;;;3.90;;
37905;SDS011;23739;51.448;6.674;2024-02-21T09:51:54;7.82;;;3.58;;
37905;SDS011;23739;51.448;6.674;2024-02-21T09:54:22;9.52;;;3.80;;
37905;SDS011;23739;51.448;6.674;2024-02-21T09:56:48;12.25;;;4.35;;
37905;SDS011;23739;51.448;6.674;2024-02-21T09:59:15;8.50;;;3.88;;
37905;SDS011;23739;51.448;6.674;2024-02-21T10:01:45;12.60;;;4.88;;
37905;SDS011;23739;51.448;6.674;2024-02-21T10:04:15;6.95;;;3.70;;
37905;SDS011;23739;51.448;6.674;2024-02-21T10:06:41;8.05;;;3.58;;
37905;SDS011;23739;51.448;6.674;2024-02-21T10:09:07;11.38;;;3.78;;
37905;SDS011;23739;51.448;6.674;2024-02-21T10:11:33;13.45;;;4.32;;
37905;SDS011;23739;51.448;6.674;2024-02-21T10:14:02;7.30;;;3.78;;
37905;SDS011;23739;51.448;6.674;2024-02-21T10:16:30;10.13;;;3.50;;
37905;SDS011;23739;51.448;6.674;2024-02-21T10:18:55;9.18;;;3.55;;
37905;SDS011;23739;51.448;6.674;2024-02-21T10:21:21;7.63;;;3.30;;
37905;SDS011;23739;51.448;6.674;2024-02-21T10:23:50;7.57;;;3.20;;
37905;SDS011;23739;51.448;6.674;2024-02-21T10:26:19;8.98;;;3.53;;
37905;SDS011;23739;51.448;6.674;2024-02-21T10:28:46;9.10;;;3.10;;
37905;SDS011;23739;51.448;6.674;2024-02-21T10:31:23;8.02;;;3.33;;
37905;SDS011;23739;51.448;6.674;2024-02-21T10:36:30;8.63;;;3.67;;
37905;SDS011;23739;51.448;6.674;2024-02-21T10:42:17;12.52;;;4.30;;
37905;SDS011;23739;51.448;6.674;2024-02-21T10:44:46;11.60;;;2.75;;
37905;SDS011;23739;51.448;6.674;2024-02-21T10:47:16;9.85;;;4.13;;
37905;SDS011;23739;51.448;6.674;2024-02-21T10:49:46;5.70;;;2.88;;
37905;SDS011;23739;51.448;6.674;2024-02-21T10:55:21;6.63;;;3.30;;
37905;SDS011;23739;51.448;6.674;2024-02-21T10:57:57;9.27;;;3.40;;
37905;SDS011;23739;51.448;6.674;2024-02-21T11:00:23;7.05;;;2.65;;
37905;SDS011;23739;51.448;6.674;2024-02-21T11:05:21;8.68;;;3.30;;
37905;SDS011;23739;51.448;6.674;2024-02-21T11:07:50;7.32;;;3.10;;
37905;SDS011;23739;51.448;6.674;2024-02-21T11:10:23;7.90;;;2.65;;
37905;SDS011;23739;51.448;6.674;2024-02-21T11:12:52;8.25;;;3.00;;
37905;SDS011;23739;51.448;6.674;2024-02-21T11:15:18;7.47;;;2.75;;
37905;SDS011;23739;51.448;6.674;2024-02-21T11:17:55;8.82;;;3.30;;
37905;SDS011;23739;51.448;6.674;2024-02-21T11:20:31;9.00;;;3.55;;
37905;SDS011;23739;51.448;6.674;2024-02-21T11:22:59;7.47;;;3.13;;
37905;SDS011;23739;51.448;6.674;2024-02-21T11:25:26;10.45;;;3.63;;
37905;SDS011;23739;51.448;6.674;2024-02-21T11:27:58;7.47;;;3.55;;
37905;SDS011;23739;51.448;6.674;2024-02-21T11:30:31;8.02;;;2.58;;
37905;SDS011;23739;51.448;6.674;2024-02-21T11:33:00;14.32;;;3.13;;
37905;SDS011;23739;51.448;6.674;2024-02-21T11:35:30;8.85;;;2.92;;
37905;SDS011;23739;51.448;6.674;2024-02-21T11:40:41;7.45;;;2.70;;
37905;SDS011;23739;51.448;6.674;2024-02-21T11:43:10;8.80;;;2.92;;
37905;SDS011;23739;51.448;6.674;2024-02-21T11:45:36;6.15;;;2.88;;
37905;SDS011;23739;51.448;6.674;2024-02-21T11:48:03;8.63;;;2.72;;
37905;SDS011;23739;51.448;6.674;2024-02-21T11:50:30;8.60;;;2.90;;
37905;SDS011;23739;51.448;6.674;2024-02-21T11:52:57;9.07;;;3.00;;
37905;SDS011;23739;51.448;6.674;2024-02-21T11:55:23;8.68;;;3.50;;
37905;SDS011;23739;51.448;6.674;2024-02-21T11:57:49;10.02;;;2.50;;
37905;SDS011;23739;51.448;6.674;2024-02-21T12:00:15;8.05;;;3.17;;
37905;SDS011;23739;51.448;6.674;2024-02-21T12:02:42;10.82;;;2.55;;
37905;SDS011;23739;51.448;6.674;2024-02-21T12:05:09;5.65;;;3.13;;
37905;SDS011;23739;51.448;6.674;2024-02-21T12:07:38;11.18;;;2.95;;
37905;SDS011;23739;51.448;6.674;2024-02-21T12:10:08;5.45;;;3.20;;
37905;SDS011;23739;51.448;6.674;2024-02-21T12:12:35;6.47;;;3.10;;
37905;SDS011;23739;51.448;6.674;2024-02-21T12:15:03;9.23;;;3.20;;
37905;SDS011;23739;51.448;6.674;2024-02-21T12:17:30;5.13;;;3.00;;
37905;SDS011;23739;51.448;6.674;2024-02-21T12:19:58;8.27;;;3.80;;
37905;SDS011;23739;51.448;6.674;2024-02-21T12:22:25;9.40;;;3.45;;
37905;SDS011;23739;51.448;6.674;2024-02-21T12:24:51;8.02;;;3.38;;
37905;SDS011;23739;51.448;6.674;2024-02-21T12:27:17;9.35;;;3.22;;
37905;SDS011;23739;51.448;6.674;2024-02-21T12:29:43;7.18;;;3.10;;
37905;SDS011;23739;51.448;6.674;2024-02-21T12:32:08;9.10;;;3.30;;
37905;SDS011;23739;51.448;6.674;2024-02-21T12:34:34;9.23;;;3.45;;
37905;SDS011;23739;51.448;6.674;2024-02-21T12:37:01;8.02;;;3.03;;
37905;SDS011;23739;51.448;6.674;2024-02-21T12:39:28;10.05;;;4.30;;
37905;SDS011;23739;51.448;6.674;2024-02-21T12:41:53;6.82;;;2.72;;
37905;SDS011;23739;51.448;6.674;2024-02-21T12:44:21;9.85;;;4.75;;
37905;SDS011;23739;51.448;6.674;2024-02-21T12:46:46;8.90;;;3.10;;
37905;SDS011;23739;51.448;6.674;2024-02-21T12:49:16;11.13;;;3.20;;
37905;SDS011;23739;51.448;6.674;2024-02-21T12:51:43;7.72;;;2.83;;
37905;SDS011;23739;51.448;6.674;2024-02-21T12:54:12;8.75;;;3.33;;
37905;SDS011;23739;51.448;6.674;2024-02-21T12:56:37;7.85;;;3.30;;
37905;SDS011;23739;51.448;6.674;2024-02-21T12:59:04;9.27;;;3.67;;
37905;SDS011;23739;51.448;6.674;2024-02-21T13:01:32;8.27;;;2.65;;
37905;SDS011;23739;51.448;6.674;2024-02-21T13:03:58;6.88;;;2.95;;
37905;SDS011;23739;51.448;6.674;2024-02-21T13:06:25;7.90;;;3.72;;
37905;SDS011;23739;51.448;6.674;2024-02-21T13:08:51;7.53;;;2.88;;
37905;SDS011;23739;51.448;6.674;2024-02-21T13:11:17;9.60;;;4.25;;
37905;SDS011;23739;51.448;6.674;2024-02-21T13:13:44;7.82;;;2.72;;
37905;SDS011;23739;51.448;6.674;2024-02-21T13:16:09;5.95;;;2.85;;
37905;SDS011;23739;51.448;6.674;2024-02-21T13:18:35;6.45;;;2.42;;
37905;SDS011;23739;51.448;6.674;2024-02-21T13:21:03;10.45;;;2.78;;
37905;SDS011;23739;51.448;6.674;2024-02-21T13:23:29;6.05;;;2.60;;
37905;SDS011;23739;51.448;6.674;2024-02-21T13:25:55;16.58;;;3.28;;
37905;SDS011;23739;51.448;6.674;2024-02-21T13:28:21;7.72;;;2.75;;
37905;SDS011;23739;51.448;6.674;2024-02-21T13:30:47;8.48;;;2.38;;
37905;SDS011;23739;51.448;6.674;2024-02-21T13:33:13;12.70;;;2.90;;
37905;SDS011;23739;51.448;6.674;2024-02-21T13:35:38;6.88;;;2.65;;
37905;SDS011;23739;51.448;6.674;2024-02-21T13:38:04;5.75;;;2.55;;
37905;SDS011;23739;51.448;6.674;2024-02-21T13:40:30;7.25;;;2.25;;
37905;SDS011;23739;51.448;6.674;2024-02-21T13:42:56;5.80;;;2.55;;
37905;SDS011;23739;51.448;6.674;2024-02-21T13:45:22;6.82;;;3.13;;
37905;SDS011;23739;51.448;6.674;2024-02-21T13:47:47;7.82;;;2.45;;
37905;SDS011;23739;51.448;6.674;2024-02-21T13:50:13;7.82;;;2.72;;
37905;SDS011;23739;51.448;6.674;2024-02-21T13:52:39;7.35;;;2.63;;
37905;SDS011;23739;51.448;6.674;2024-02-21T13:55:06;7.03;;;2.33;;
37905;SDS011;23739;51.448;6.674;2024-02-21T13:57:38;8.55;;;2.30;;
37905;SDS011;23739;51.448;6.674;2024-02-21T14:00:04;6.10;;;2.60;;
37905;SDS011;23739;51.448;6.674;2024-02-21T14:02:30;4.63;;;2.38;;
37905;SDS011;23739;51.448;6.674;2024-02-21T14:04:56;11.20;;;3.03;;
37905;SDS011;23739;51.448;6.674;2024-02-21T14:07:22;12.10;;;3.05;;
37905;SDS011;23739;51.448;6.674;2024-02-21T14:09:48;7.32;;;2.78;;
37905;SDS011;23739;51.448;6.674;2024-02-21T14:12:14;6.38;;;2.58;;
37905;SDS011;23739;51.448;6.674;2024-02-21T14:14:42;9.48;;;2.63;;
37905;SDS011;23739;51.448;6.674;2024-02-21T14:17:09;4.05;;;2.30;;
37905;SDS011;23739;51.448;6.674;2024-02-21T14:19:35;9.07;;;3.45;;
37905;SDS011;23739;51.448;6.674;2024-02-21T14:22:00;8.57;;;2.92;;
37905;SDS011;23739;51.448;6.674;2024-02-21T14:24:27;9.07;;;2.90;;
37905;SDS011;23739;51.448;6.674;2024-02-21T14:26:53;8.07;;;3.05;;
37905;SDS011;23739;51.448;6.674;2024-02-21T14:29:19;8.35;;;2.97;;
37905;SDS011;23739;51.448;6.674;2024-02-21T14:31:46;7.22;;;2.63;;
37905;SDS011;23739;51.448;6.674;2024-02-21T14:34:11;10.93;;;3.13;;
37905;SDS011;23739;51.448;6.674;2024-02-21T14:36:37;11.82;;;3.13;;
37905;SDS011;23739;51.448;6.674;2024-02-21T14:39:03;7.82;;;2.80;;
37905;SDS011;23739;51.448;6.674;2024-02-21T14:41:29;7.20;;;2.40;;
37905;SDS011;23739;51.448;6.674;2024-02-21T14:43:55;8.93;;;3.55;;
37905;SDS011;23739;51.448;6.674;2024-02-21T14:46:25;9.27;;;3.08;;
37905;SDS011;23739;51.448;6.674;2024-02-21T14:48:54;4.47;;;2.75;;
37905;SDS011;23739;51.448;6.674;2024-02-21T14:51:20;9.35;;;3.20;;